sensor_id;sensor_type;location;lat;lon;timestamp;pressure;altitude;pressure_sealevel;temperature;humidity
16094;BME280;8151;47.824;12.092;2023-02-12T00:01:24;98141.19;;;2.73;53.76
16094;BME280;8151;47.824;12.092;2023-02-12T00:03:54;98137.75;;;2.72;53.81
16094;BME280;8151;47.824;12.092;2023-02-12T00:06:23;98145.59;;;2.72;53.81
16094;BME280;8151;47.824;12.092;2023-02-12T00:08:53;98142.53;;;2.64;54.05
16094;BME280;8151;47.824;12.092;2023-02-12T00:11:23;98152.34;;;2.59;54.22
16094;BME280;8151;47.824;12.092;2023-02-12T00:13:55;98146.41;;;2.55;54.19
16094;BME280;8151;47.824;12.092;2023-02-12T00:16:25;98146.72;;;2.49;54.35
16094;BME280;8151;47.824;12.092;2023-02-12T00:18:56;98149.50;;;2.46;54.51
16094;BME280;8151;47.824;12.092;2023-02-12T00:21:25;98150.31;;;2.47;54.36
16094;BME280;8151;47.824;12.092;2023-02-12T00:23:54;98147.56;;;2.50;54.40
16094;BME280;8151;47.824;12.092;2023-02-12T00:26:23;98147.47;;;2.51;54.34
16094;BME280;8151;47.824;12.092;2023-02-12T00:28:54;98136.19;;;2.51;54.28
16094;BME280;8151;47.824;12.092;2023-02-12T00:31:24;98137.09;;;2.50;54.46
16094;BME280;8151;47.824;12.092;2023-02-12T00:33:53;98138.81;;;2.51;54.41
16094;BME280;8151;47.824;12.092;2023-02-12T00:36:25;98139.56;;;2.53;54.47
16094;BME280;8151;47.824;12.092;2023-02-12T00:38:54;98155.25;;;2.53;54.32
16094;BME280;8151;47.824;12.092;2023-02-12T00:41:31;98160.53;;;2.51;54.69
16094;BME280;8151;47.824;12.092;2023-02-12T00:44:01;98161.38;;;2.52;54.64
16094;BME280;8151;47.824;12.092;2023-02-12T00:46:29;98157.09;;;2.51;54.64
16094;BME280;8151;47.824;12.092;2023-02-12T00:48:58;98154.47;;;2.51;55.00
16094;BME280;8151;47.824;12.092;2023-02-12T00:51:26;98150.09;;;2.51;54.96
16094;BME280;8151;47.824;12.092;2023-02-12T00:53:55;98151.88;;;2.51;54.91
16094;BME280;8151;47.824;12.092;2023-02-12T00:56:23;98150.94;;;2.52;55.31
16094;BME280;8151;47.824;12.092;2023-02-12T00:58:51;98150.81;;;2.55;55.24
16094;BME280;8151;47.824;12.092;2023-02-12T01:01:21;98157.63;;;2.58;55.28
16094;BME280;8151;47.824;12.092;2023-02-12T01:03:50;98153.16;;;2.60;55.40
16094;BME280;8151;47.824;12.092;2023-02-12T01:06:18;98151.44;;;2.60;55.16
16094;BME280;8151;47.824;12.092;2023-02-12T01:08:49;98161.72;;;2.63;55.36
16094;BME280;8151;47.824;12.092;2023-02-12T01:11:18;98156.50;;;2.63;55.39
16094;BME280;8151;47.824;12.092;2023-02-12T01:13:47;98148.59;;;2.65;55.21
16094;BME280;8151;47.824;12.092;2023-02-12T01:16:16;98146.75;;;2.67;55.15
16094;BME280;8151;47.824;12.092;2023-02-12T01:18:47;98148.44;;;2.68;55.46
16094;BME280;8151;47.824;12.092;2023-02-12T01:21:17;98149.28;;;2.68;55.59
16094;BME280;8151;47.824;12.092;2023-02-12T01:23:46;98157.97;;;2.69;55.67
16094;BME280;8151;47.824;12.092;2023-02-12T01:26:17;98158.81;;;2.69;55.79
16094;BME280;8151;47.824;12.092;2023-02-12T01:28:49;98158.72;;;2.71;55.89
16094;BME280;8151;47.824;12.092;2023-02-12T01:31:20;98155.22;;;2.72;55.67
16094;BME280;8151;47.824;12.092;2023-02-12T01:33:52;98155.97;;;2.74;56.01
16094;BME280;8151;47.824;12.092;2023-02-12T01:36:21;98152.34;;;2.76;55.79
16094;BME280;8151;47.824;12.092;2023-02-12T01:38:50;98148.75;;;2.79;55.92
16094;BME280;8151;47.824;12.092;2023-02-12T01:41:20;98147.00;;;2.80;55.95
16094;BME280;8151;47.824;12.092;2023-02-12T01:44:14;98145.97;;;2.82;56.32
16094;BME280;8151;47.824;12.092;2023-02-12T01:46:45;98145.84;;;2.85;55.79
16094;BME280;8151;47.824;12.092;2023-02-12T01:49:18;98142.22;;;2.88;56.00
16094;BME280;8151;47.824;12.092;2023-02-12T01:51:52;98143.81;;;2.90;55.83
16094;BME280;8151;47.824;12.092;2023-02-12T01:54:22;98142.84;;;2.93;55.76
16094;BME280;8151;47.824;12.092;2023-02-12T01:56:54;98143.63;;;2.95;55.81
16094;BME280;8151;47.824;12.092;2023-02-12T01:59:23;98146.31;;;2.93;55.76
16094;BME280;8151;47.824;12.092;2023-02-12T02:01:52;98126.28;;;2.92;55.82
16094;BME280;8151;47.824;12.092;2023-02-12T02:04:25;98127.31;;;2.90;56.14
16094;BME280;8151;47.824;12.092;2023-02-12T02:06:57;98125.69;;;2.87;56.03
16094;BME280;8151;47.824;12.092;2023-02-12T02:09:26;98124.06;;;2.85;56.26
16094;BME280;8151;47.824;12.092;2023-02-12T02:11:55;98125.75;;;2.86;56.47
16094;BME280;8151;47.824;12.092;2023-02-12T02:14:42;98125.75;;;2.86;56.46
16094;BME280;8151;47.824;12.092;2023-02-12T02:20:35;98129.28;;;2.85;56.44
16094;BME280;8151;47.824;12.092;2023-02-12T02:23:29;98135.66;;;2.79;56.70
16094;BME280;8151;47.824;12.092;2023-02-12T02:26:13;98144.53;;;2.76;56.80
16094;BME280;8151;47.824;12.092;2023-02-12T02:29:07;98152.34;;;2.76;57.00
16094;BME280;8151;47.824;12.092;2023-02-12T02:31:43;98151.53;;;2.76;56.72
16094;BME280;8151;47.824;12.092;2023-02-12T02:34:19;98145.97;;;2.82;56.87
16094;BME280;8151;47.824;12.092;2023-02-12T02:36:55;98142.28;;;2.86;56.56
16094;BME280;8151;47.824;12.092;2023-02-12T02:39:33;98134.31;;;2.89;56.62
16094;BME280;8151;47.824;12.092;2023-02-12T02:42:08;98140.31;;;2.91;56.58
16094;BME280;8151;47.824;12.092;2023-02-12T02:44:43;98148.84;;;2.95;56.71
16094;BME280;8151;47.824;12.092;2023-02-12T02:47:17;98140.06;;;2.96;56.51
16094;BME280;8151;47.824;12.092;2023-02-12T02:49:52;98146.94;;;2.99;56.73
16094;BME280;8151;47.824;12.092;2023-02-12T02:52:30;98138.91;;;3.02;56.62
16094;BME280;8151;47.824;12.092;2023-02-12T02:55:04;98147.59;;;3.02;56.57
16094;BME280;8151;47.824;12.092;2023-02-12T02:57:39;98156.22;;;3.04;56.77
16094;BME280;8151;47.824;12.092;2023-02-12T03:00:13;98163.97;;;3.06;56.63
16094;BME280;8151;47.824;12.092;2023-02-12T03:02:47;98160.47;;;3.07;56.83
16094;BME280;8151;47.824;12.092;2023-02-12T03:05:22;98158.63;;;3.09;56.58
16094;BME280;8151;47.824;12.092;2023-02-12T03:07:56;98163.00;;;3.08;56.70
16094;BME280;8151;47.824;12.092;2023-02-12T03:10:28;98150.75;;;3.09;56.55
16094;BME280;8151;47.824;12.092;2023-02-12T03:13:01;98148.97;;;3.09;56.42
16094;BME280;8151;47.824;12.092;2023-02-12T03:15:37;98143.81;;;3.08;56.28
16094;BME280;8151;47.824;12.092;2023-02-12T03:18:18;98144.00;;;3.05;56.66
16094;BME280;8151;47.824;12.092;2023-02-12T03:20:54;98143.31;;;3.01;56.57
16094;BME280;8151;47.824;12.092;2023-02-12T03:23:28;98149.53;;;2.99;56.78
16094;BME280;8151;47.824;12.092;2023-02-12T03:26:10;98154.97;;;2.94;56.60
16094;BME280;8151;47.824;12.092;2023-02-12T03:28:40;98149.00;;;2.92;56.94
16094;BME280;8151;47.824;12.092;2023-02-12T03:31:18;98156.06;;;2.90;57.09
16094;BME280;8151;47.824;12.092;2023-02-12T03:34:04;98145.84;;;2.85;57.23
16094;BME280;8151;47.824;12.092;2023-02-12T03:36:48;98145.06;;;2.83;57.46
16094;BME280;8151;47.824;12.092;2023-02-12T03:39:44;98143.44;;;2.81;57.40
16094;BME280;8151;47.824;12.092;2023-02-12T03:42:33;98151.34;;;2.79;57.33
16094;BME280;8151;47.824;12.092;2023-02-12T03:45:19;98162.63;;;2.81;57.45
16094;BME280;8151;47.824;12.092;2023-02-12T03:47:55;98170.28;;;2.84;57.45
16094;BME280;8151;47.824;12.092;2023-02-12T03:50:32;98169.28;;;2.87;57.44
16094;BME280;8151;47.824;12.092;2023-02-12T03:53:02;98166.44;;;2.91;57.19
16094;BME280;8151;47.824;12.092;2023-02-12T03:55:33;98166.28;;;2.94;57.33
16094;BME280;8151;47.824;12.092;2023-02-12T03:58:08;98165.22;;;2.99;57.21
16094;BME280;8151;47.824;12.092;2023-02-12T04:00:38;98159.84;;;3.02;57.13
16094;BME280;8151;47.824;12.092;2023-02-12T04:03:07;98170.16;;;3.05;57.24
16094;BME280;8151;47.824;12.092;2023-02-12T04:05:36;98169.13;;;3.07;57.25
16094;BME280;8151;47.824;12.092;2023-02-12T04:08:07;98163.91;;;3.07;57.29
16094;BME280;8151;47.824;12.092;2023-02-12T04:10:52;98162.13;;;3.08;57.30
16094;BME280;8151;47.824;12.092;2023-02-12T04:13:27;98162.19;;;3.06;57.36
16094;BME280;8151;47.824;12.092;2023-02-12T04:16:08;98156.22;;;3.04;57.51
16094;BME280;8151;47.824;12.092;2023-02-12T04:18:42;98163.28;;;3.02;57.46
16094;BME280;8151;47.824;12.092;2023-02-12T04:21:23;98166.84;;;3.01;57.67
16094;BME280;8151;47.824;12.092;2023-02-12T04:24:04;98157.28;;;3.00;57.68
16094;BME280;8151;47.824;12.092;2023-02-12T04:26:38;98163.47;;;2.99;57.56
16094;BME280;8151;47.824;12.092;2023-02-12T04:29:16;98157.38;;;2.99;57.69
16094;BME280;8151;47.824;12.092;2023-02-12T04:31:49;98148.69;;;2.98;57.76
16094;BME280;8151;47.824;12.092;2023-02-12T04:34:25;98160.16;;;2.95;57.86
16094;BME280;8151;47.824;12.092;2023-02-12T04:37:04;98168.13;;;2.92;58.08
16094;BME280;8151;47.824;12.092;2023-02-12T04:39:36;98165.50;;;2.92;58.01
16094;BME280;8151;47.824;12.092;2023-02-12T04:42:06;98171.69;;;2.91;58.20
16094;BME280;8151;47.824;12.092;2023-02-12T04:44:37;98173.34;;;2.92;58.10
16094;BME280;8151;47.824;12.092;2023-02-12T04:47:06;98185.53;;;2.93;58.16
16094;BME280;8151;47.824;12.092;2023-02-12T04:49:34;98186.28;;;2.95;58.16
16094;BME280;8151;47.824;12.092;2023-02-12T04:52:04;98181.84;;;2.98;57.89
16094;BME280;8151;47.824;12.092;2023-02-12T04:54:33;98186.06;;;3.00;58.15
16094;BME280;8151;47.824;12.092;2023-02-12T04:57:02;98183.38;;;3.02;58.12
16094;BME280;8151;47.824;12.092;2023-02-12T04:59:30;98185.06;;;3.03;58.27
16094;BME280;8151;47.824;12.092;2023-02-12T05:01:59;98183.38;;;3.02;58.25
16094;BME280;8151;47.824;12.092;2023-02-12T05:04:27;98185.16;;;3.01;58.43
16094;BME280;8151;47.824;12.092;2023-02-12T05:06:55;98196.44;;;3.02;58.35
16094;BME280;8151;47.824;12.092;2023-02-12T05:09:25;98200.91;;;3.00;58.42
16094;BME280;8151;47.824;12.092;2023-02-12T05:11:54;98200.91;;;3.00;58.46
16094;BME280;8151;47.824;12.092;2023-02-12T05:14:23;98194.00;;;2.99;58.51
16094;BME280;8151;47.824;12.092;2023-02-12T05:16:51;98201.84;;;2.99;58.65
16094;BME280;8151;47.824;12.092;2023-02-12T05:19:19;98205.22;;;3.01;58.73
16094;BME280;8151;47.824;12.092;2023-02-12T05:21:49;98205.91;;;3.04;58.48
16094;BME280;8151;47.824;12.092;2023-02-12T05:24:17;98203.13;;;3.07;58.56
16094;BME280;8151;47.824;12.092;2023-02-12T05:26:47;98203.97;;;3.08;58.48
16094;BME280;8151;47.824;12.092;2023-02-12T05:29:16;98209.28;;;3.06;58.48
16094;BME280;8151;47.824;12.092;2023-02-12T05:31:45;98214.50;;;3.06;58.58
16094;BME280;8151;47.824;12.092;2023-02-12T05:34:13;98209.28;;;3.06;58.66
16094;BME280;8151;47.824;12.092;2023-02-12T05:36:42;98204.91;;;3.07;58.66
16094;BME280;8151;47.824;12.092;2023-02-12T05:39:10;98202.31;;;3.07;58.53
16094;BME280;8151;47.824;12.092;2023-02-12T05:41:38;98210.22;;;3.05;58.79
16094;BME280;8151;47.824;12.092;2023-02-12T05:44:08;98205.81;;;3.06;58.78
16094;BME280;8151;47.824;12.092;2023-02-12T05:46:38;98223.22;;;3.07;58.82
16094;BME280;8151;47.824;12.092;2023-02-12T05:49:06;98217.06;;;3.08;58.98
16094;BME280;8151;47.824;12.092;2023-02-12T05:51:34;98220.44;;;3.10;58.86
16094;BME280;8151;47.824;12.092;2023-02-12T05:54:05;98214.31;;;3.11;58.81
16094;BME280;8151;47.824;12.092;2023-02-12T05:56:35;98220.31;;;3.13;58.60
16094;BME280;8151;47.824;12.092;2023-02-12T05:59:05;98222.16;;;3.11;58.95
16094;BME280;8151;47.824;12.092;2023-02-12T06:01:38;98222.22;;;3.09;59.04
16094;BME280;8151;47.824;12.092;2023-02-12T06:04:10;98216.09;;;3.10;58.93
16094;BME280;8151;47.824;12.092;2023-02-12T06:06:41;98220.38;;;3.11;59.05
16094;BME280;8151;47.824;12.092;2023-02-12T06:09:10;98215.97;;;3.12;58.97
16094;BME280;8151;47.824;12.092;2023-02-12T06:11:39;98226.44;;;3.12;59.30
16094;BME280;8151;47.824;12.092;2023-02-12T06:14:10;98227.31;;;3.12;59.39
16094;BME280;8151;47.824;12.092;2023-02-12T06:16:43;98222.91;;;3.13;59.17
16094;BME280;8151;47.824;12.092;2023-02-12T06:19:12;98226.31;;;3.15;59.09
16094;BME280;8151;47.824;12.092;2023-02-12T06:21:41;98224.53;;;3.15;59.14
16094;BME280;8151;47.824;12.092;2023-02-12T06:24:10;98221.84;;;3.17;59.04
16094;BME280;8151;47.824;12.092;2023-02-12T06:26:39;98232.38;;;3.15;59.08
16094;BME280;8151;47.824;12.092;2023-02-12T06:29:08;98232.38;;;3.15;59.10
16094;BME280;8151;47.824;12.092;2023-02-12T06:31:36;98228.00;;;3.16;58.68
16094;BME280;8151;47.824;12.092;2023-02-12T06:34:08;98236.63;;;3.18;58.98
16094;BME280;8151;47.824;12.092;2023-02-12T06:36:38;98225.28;;;3.18;59.03
16094;BME280;8151;47.824;12.092;2023-02-12T06:39:07;98230.47;;;3.19;58.74
16094;BME280;8151;47.824;12.092;2023-02-12T06:41:36;98230.38;;;3.21;58.88
16094;BME280;8151;47.824;12.092;2023-02-12T06:44:04;98225.09;;;3.22;58.69
16094;BME280;8151;47.824;12.092;2023-02-12T06:46:33;98229.38;;;3.23;58.92
16094;BME280;8151;47.824;12.092;2023-02-12T06:49:02;98226.69;;;3.25;58.99
16094;BME280;8151;47.824;12.092;2023-02-12T06:51:31;98230.06;;;3.27;58.85
16094;BME280;8151;47.824;12.092;2023-02-12T06:54:02;98226.56;;;3.28;58.90
16094;BME280;8151;47.824;12.092;2023-02-12T06:56:30;98230.00;;;3.28;58.88
16094;BME280;8151;47.824;12.092;2023-02-12T06:58:59;98237.84;;;3.28;58.85
16094;BME280;8151;47.824;12.092;2023-02-12T07:01:29;98237.84;;;3.28;58.91
16094;BME280;8151;47.824;12.092;2023-02-12T07:03:59;98236.91;;;3.29;59.19
16094;BME280;8151;47.824;12.092;2023-02-12T07:06:29;98242.91;;;3.31;59.10
16094;BME280;8151;47.824;12.092;2023-02-12T07:09:00;98241.16;;;3.32;59.04
16094;BME280;8151;47.824;12.092;2023-02-12T07:11:31;98234.94;;;3.34;59.15
16094;BME280;8151;47.824;12.092;2023-02-12T07:14:04;98246.22;;;3.35;59.02
16094;BME280;8151;47.824;12.092;2023-02-12T07:16:32;98242.63;;;3.38;59.19
16094;BME280;8151;47.824;12.092;2023-02-12T07:19:01;98247.75;;;3.39;59.12
16094;BME280;8151;47.824;12.092;2023-02-12T07:21:29;98252.03;;;3.42;59.07
16094;BME280;8151;47.824;12.092;2023-02-12T07:23:59;98243.16;;;3.44;59.00
16094;BME280;8151;47.824;12.092;2023-02-12T07:26:27;98239.53;;;3.47;59.21
16094;BME280;8151;47.824;12.092;2023-02-12T07:28:56;98244.69;;;3.48;59.07
16094;BME280;8151;47.824;12.092;2023-02-12T07:31:25;98246.41;;;3.49;59.30
16094;BME280;8151;47.824;12.092;2023-02-12T07:33:54;98243.72;;;3.51;59.07
16094;BME280;8151;47.824;12.092;2023-02-12T07:36:25;98243.72;;;3.51;59.08
16094;BME280;8151;47.824;12.092;2023-02-12T07:38:54;98250.63;;;3.52;59.13
16094;BME280;8151;47.824;12.092;2023-02-12T07:41:26;98249.78;;;3.51;59.15
16094;BME280;8151;47.824;12.092;2023-02-12T07:43:56;98248.00;;;3.52;59.29
16094;BME280;8151;47.824;12.092;2023-02-12T07:46:27;98253.94;;;3.55;59.16
16094;BME280;8151;47.824;12.092;2023-02-12T07:48:58;98241.69;;;3.56;59.16
16094;BME280;8151;47.824;12.092;2023-02-12T07:51:27;98252.00;;;3.59;59.05
16094;BME280;8151;47.824;12.092;2023-02-12T07:53:55;98241.28;;;3.64;59.17
16094;BME280;8151;47.824;12.092;2023-02-12T07:56:27;98253.09;;;3.72;59.30
16094;BME280;8151;47.824;12.092;2023-02-12T07:58:59;98249.19;;;3.80;59.30
16094;BME280;8151;47.824;12.092;2023-02-12T08:01:30;98249.75;;;3.86;59.01
16094;BME280;8151;47.824;12.092;2023-02-12T08:04:00;98245.84;;;3.93;59.16
16094;BME280;8151;47.824;12.092;2023-02-12T08:06:30;98240.31;;;4.00;58.81
16094;BME280;8151;47.824;12.092;2023-02-12T08:09:00;98231.38;;;4.04;58.95
16094;BME280;8151;47.824;12.092;2023-02-12T08:11:31;98235.50;;;4.08;58.81
16094;BME280;8151;47.824;12.092;2023-02-12T08:13:59;98240.50;;;4.12;58.87
16094;BME280;8151;47.824;12.092;2023-02-12T08:16:28;98229.78;;;4.17;58.79
16094;BME280;8151;47.824;12.092;2023-02-12T08:18:57;98232.06;;;4.23;58.61
16094;BME280;8151;47.824;12.092;2023-02-12T08:21:42;98226.56;;;4.28;58.63
16094;BME280;8151;47.824;12.092;2023-02-12T08:24:11;98226.25;;;4.34;58.15
16094;BME280;8151;47.824;12.092;2023-02-12T08:26:40;98224.97;;;4.41;58.10
16094;BME280;8151;47.824;12.092;2023-02-12T08:29:11;98230.84;;;4.46;57.90
16094;BME280;8151;47.824;12.092;2023-02-12T08:31:41;98224.56;;;4.49;57.75
16094;BME280;8151;47.824;12.092;2023-02-12T08:34:16;98223.38;;;4.54;57.85
16094;BME280;8151;47.824;12.092;2023-02-12T08:36:46;98218.75;;;4.60;57.87
16094;BME280;8151;47.824;12.092;2023-02-12T08:39:15;98228.88;;;4.66;57.75
16094;BME280;8151;47.824;12.092;2023-02-12T08:41:46;98226.81;;;4.71;58.07
16094;BME280;8151;47.824;12.092;2023-02-12T08:44:15;98227.16;;;4.81;58.00
16094;BME280;8151;47.824;12.092;2023-02-12T08:46:45;98220.66;;;4.88;57.58
16094;BME280;8151;47.824;12.092;2023-02-12T08:49:15;98222.84;;;4.96;57.34
16094;BME280;8151;47.824;12.092;2023-02-12T08:51:46;98218.94;;;5.03;57.35
16094;BME280;8151;47.824;12.092;2023-02-12T08:54:17;98215.97;;;5.09;57.33
16094;BME280;8151;47.824;12.092;2023-02-12T08:56:47;98218.97;;;5.17;57.64
16094;BME280;8151;47.824;12.092;2023-02-12T08:59:16;98226.31;;;5.26;57.48
16094;BME280;8151;47.824;12.092;2023-02-12T09:01:44;98225.88;;;5.34;57.56
16094;BME280;8151;47.824;12.092;2023-02-12T09:04:14;98221.09;;;5.41;57.20
16094;BME280;8151;47.824;12.092;2023-02-12T09:06:45;98219.81;;;5.48;57.40
16094;BME280;8151;47.824;12.092;2023-02-12T09:09:14;98218.53;;;5.55;57.29
16094;BME280;8151;47.824;12.092;2023-02-12T09:11:42;98220.78;;;5.61;57.08
16094;BME280;8151;47.824;12.092;2023-02-12T09:14:15;98222.94;;;5.69;57.59
16094;BME280;8151;47.824;12.092;2023-02-12T09:16:44;98228.78;;;5.74;57.28
16094;BME280;8151;47.824;12.092;2023-02-12T09:19:13;98224.00;;;5.81;57.09
16094;BME280;8151;47.824;12.092;2023-02-12T09:21:42;98219.09;;;5.89;57.19
16094;BME280;8151;47.824;12.092;2023-02-12T09:24:10;98224.94;;;5.94;57.57
16094;BME280;8151;47.824;12.092;2023-02-12T09:26:38;98226.09;;;6.04;57.53
16094;BME280;8151;47.824;12.092;2023-02-12T09:29:07;98236.03;;;6.14;57.12
16094;BME280;8151;47.824;12.092;2023-02-12T09:31:37;98234.53;;;6.24;57.04
16094;BME280;8151;47.824;12.092;2023-02-12T09:34:06;98238.66;;;6.28;56.77
16094;BME280;8151;47.824;12.092;2023-02-12T09:36:34;98241.19;;;6.29;56.86
16094;BME280;8151;47.824;12.092;2023-02-12T09:39:03;98237.63;;;6.30;56.92
16094;BME280;8151;47.824;12.092;2023-02-12T09:41:59;98243.56;;;6.34;56.82
16094;BME280;8151;47.824;12.092;2023-02-12T09:44:36;98244.19;;;6.38;57.30
16094;BME280;8151;47.824;12.092;2023-02-12T09:47:14;98233.31;;;6.44;57.26
16094;BME280;8151;47.824;12.092;2023-02-12T09:50:16;98231.13;;;6.50;57.02
16094;BME280;8151;47.824;12.092;2023-02-12T09:52:50;98236.00;;;6.57;56.82
16094;BME280;8151;47.824;12.092;2023-02-12T09:55:20;98234.75;;;6.62;56.92
16094;BME280;8151;47.824;12.092;2023-02-12T09:57:52;98237.88;;;6.69;56.82
16094;BME280;8151;47.824;12.092;2023-02-12T10:00:23;98241.91;;;6.75;56.86
16094;BME280;8151;47.824;12.092;2023-02-12T10:02:56;98239.69;;;6.81;57.04
16094;BME280;8151;47.824;12.092;2023-02-12T10:05:34;98235.84;;;6.87;56.64
16094;BME280;8151;47.824;12.092;2023-02-12T10:08:21;98237.75;;;6.98;56.83
16094;BME280;8151;47.824;12.092;2023-02-12T10:10:59;98236.41;;;7.05;56.75
16094;BME280;8151;47.824;12.092;2023-02-12T10:13:40;98243.81;;;7.13;57.00
16094;BME280;8151;47.824;12.092;2023-02-12T10:16:20;98240.69;;;7.20;56.55
16094;BME280;8151;47.824;12.092;2023-02-12T10:19:04;98247.16;;;7.29;57.02
16094;BME280;8151;47.824;12.092;2023-02-12T10:21:45;98244.44;;;7.43;56.73
16094;BME280;8151;47.824;12.092;2023-02-12T10:24:39;98240.22;;;7.54;56.76
16094;BME280;8151;47.824;12.092;2023-02-12T10:27:12;98245.84;;;7.62;56.71
16094;BME280;8151;47.824;12.092;2023-02-12T10:29:43;98242.66;;;7.69;57.08
16094;BME280;8151;47.824;12.092;2023-02-12T10:32:24;98244.19;;;7.74;57.62
16094;BME280;8151;47.824;12.092;2023-02-12T10:34:55;98233.31;;;7.78;57.73
16094;BME280;8151;47.824;12.092;2023-02-12T10:37:28;98231.81;;;7.87;57.82
16094;BME280;8151;47.824;12.092;2023-02-12T10:40:04;98231.00;;;7.99;57.90
16094;BME280;8151;47.824;12.092;2023-02-12T10:42:37;98235.50;;;8.10;58.31
16094;BME280;8151;47.824;12.092;2023-02-12T10:45:12;98230.34;;;8.21;58.08
16094;BME280;8151;47.824;12.092;2023-02-12T10:47:42;98222.50;;;8.33;58.00
16094;BME280;8151;47.824;12.092;2023-02-12T10:50:19;98221.91;;;8.42;58.12
16094;BME280;8151;47.824;12.092;2023-02-12T10:52:53;98214.81;;;8.55;58.24
16094;BME280;8151;47.824;12.092;2023-02-12T10:55:25;98211.06;;;8.71;58.03
16094;BME280;8151;47.824;12.092;2023-02-12T10:57:54;98216.28;;;8.83;57.94
16094;BME280;8151;47.824;12.092;2023-02-12T11:00:26;98205.06;;;8.93;57.81
16094;BME280;8151;47.824;12.092;2023-02-12T11:03:08;98211.34;;;9.03;57.90
16094;BME280;8151;47.824;12.092;2023-02-12T11:05:47;98212.56;;;9.10;57.55
16094;BME280;8151;47.824;12.092;2023-02-12T11:08:29;98210.19;;;9.18;57.92
16094;BME280;8151;47.824;12.092;2023-02-12T11:11:07;98207.59;;;9.30;58.04
16094;BME280;8151;47.824;12.092;2023-02-12T11:13:39;98211.13;;;9.41;58.10
16094;BME280;8151;47.824;12.092;2023-02-12T11:16:10;98203.84;;;9.56;57.67
16094;BME280;8151;47.824;12.092;2023-02-12T11:18:39;98203.16;;;9.65;57.74
16094;BME280;8151;47.824;12.092;2023-02-12T11:21:10;98202.69;;;9.72;57.64
16094;BME280;8151;47.824;12.092;2023-02-12T11:23:41;98204.34;;;9.73;57.36
16094;BME280;8151;47.824;12.092;2023-02-12T11:26:23;98207.13;;;9.82;57.82
16094;BME280;8151;47.824;12.092;2023-02-12T11:28:53;98202.13;;;9.91;57.61
16094;BME280;8151;47.824;12.092;2023-02-12T11:31:27;98198.50;;;9.92;57.19
16094;BME280;8151;47.824;12.092;2023-02-12T11:34:07;98188.16;;;10.00;57.40
16094;BME280;8151;47.824;12.092;2023-02-12T11:36:40;98194.88;;;10.04;57.58
16094;BME280;8151;47.824;12.092;2023-02-12T11:39:18;98194.19;;;10.13;57.54
16094;BME280;8151;47.824;12.092;2023-02-12T11:41:50;98181.44;;;10.18;57.44
16094;BME280;8151;47.824;12.092;2023-02-12T11:44:21;98179.03;;;10.27;57.44
16094;BME280;8151;47.824;12.092;2023-02-12T11:46:54;98167.34;;;10.29;57.50
16094;BME280;8151;47.824;12.092;2023-02-12T11:49:27;98166.03;;;10.23;57.47
16094;BME280;8151;47.824;12.092;2023-02-12T11:52:00;98167.13;;;10.21;57.80
16094;BME280;8151;47.824;12.092;2023-02-12T11:54:33;98159.56;;;10.28;58.02
16094;BME280;8151;47.824;12.092;2023-02-12T11:57:06;98166.19;;;10.33;57.74
16094;BME280;8151;47.824;12.092;2023-02-12T11:59:35;98152.47;;;10.39;57.44
16094;BME280;8151;47.824;12.092;2023-02-12T12:02:15;98151.50;;;10.40;57.21
16094;BME280;8151;47.824;12.092;2023-02-12T12:04:47;98155.84;;;10.41;56.80
16094;BME280;8151;47.824;12.092;2023-02-12T12:07:22;98153.31;;;10.40;57.58
16094;BME280;8151;47.824;12.092;2023-02-12T12:09:57;98140.91;;;10.40;56.75
16094;BME280;8151;47.824;12.092;2023-02-12T12:12:31;98145.84;;;10.45;56.86
16094;BME280;8151;47.824;12.092;2023-02-12T12:15:10;98143.91;;;10.47;56.86
16094;BME280;8151;47.824;12.092;2023-02-12T12:18:10;98150.63;;;10.51;56.40
16094;BME280;8151;47.824;12.092;2023-02-12T12:21:07;98147.72;;;10.54;56.96
16094;BME280;8151;47.824;12.092;2023-02-12T12:23:43;98146.78;;;10.55;56.62
16094;BME280;8151;47.824;12.092;2023-02-12T12:26:21;98139.44;;;10.59;57.03
16094;BME280;8151;47.824;12.092;2023-02-12T12:28:54;98145.06;;;10.66;56.58
16094;BME280;8151;47.824;12.092;2023-02-12T12:31:27;98145.66;;;10.69;56.95
16094;BME280;8151;47.824;12.092;2023-02-12T12:34:02;98138.66;;;10.68;56.59
16094;BME280;8151;47.824;12.092;2023-02-12T12:36:56;98137.00;;;10.67;56.57
16094;BME280;8151;47.824;12.092;2023-02-12T12:39:35;98139.41;;;10.70;56.86
16094;BME280;8151;47.824;12.092;2023-02-12T12:45:22;98135.28;;;10.66;56.56
16094;BME280;8151;47.824;12.092;2023-02-12T12:48:02;98132.91;;;10.63;56.33
16094;BME280;8151;47.824;12.092;2023-02-12T12:50:50;98127.34;;;10.66;56.82
16094;BME280;8151;47.824;12.092;2023-02-12T12:53:41;98126.28;;;10.69;56.68
16094;BME280;8151;47.824;12.092;2023-02-12T12:56:27;98121.81;;;10.69;56.31
16094;BME280;8151;47.824;12.092;2023-02-12T13:05:20;98117.75;;;10.65;56.09
16094;BME280;8151;47.824;12.092;2023-02-12T13:08:00;98119.09;;;10.59;56.38
16094;BME280;8151;47.824;12.092;2023-02-12T13:10:35;98124.06;;;10.53;56.37
16094;BME280;8151;47.824;12.092;2023-02-12T13:13:19;98123.34;;;10.51;56.26
16094;BME280;8151;47.824;12.092;2023-02-12T13:15:56;98132.09;;;10.51;56.46
16094;BME280;8151;47.824;12.092;2023-02-12T13:18:44;98120.53;;;10.52;56.47
16094;BME280;8151;47.824;12.092;2023-02-12T13:21:19;98119.31;;;10.56;56.53
16094;BME280;8151;47.824;12.092;2023-02-12T13:23:54;98111.34;;;10.68;56.44
16094;BME280;8151;47.824;12.092;2023-02-12T13:26:29;98123.44;;;10.81;55.60
16094;BME280;8151;47.824;12.092;2023-02-12T13:29:06;98123.59;;;11.01;55.49
16094;BME280;8151;47.824;12.092;2023-02-12T13:31:39;98121.38;;;11.17;55.42
16094;BME280;8151;47.824;12.092;2023-02-12T13:34:12;98114.78;;;11.33;55.50
16094;BME280;8151;47.824;12.092;2023-02-12T13:36:42;98114.72;;;11.44;55.14
16094;BME280;8151;47.824;12.092;2023-02-12T13:39:17;98118.13;;;11.56;55.22
16094;BME280;8151;47.824;12.092;2023-02-12T13:42:06;98114.28;;;11.70;55.42
16094;BME280;8151;47.824;12.092;2023-02-12T13:44:42;98109.88;;;11.80;54.84
16094;BME280;8151;47.824;12.092;2023-02-12T13:47:22;98109.09;;;11.89;54.99
16094;BME280;8151;47.824;12.092;2023-02-12T13:49:58;98110.84;;;12.00;54.79
16094;BME280;8151;47.824;12.092;2023-02-12T13:52:33;98099.97;;;12.13;54.50
16094;BME280;8151;47.824;12.092;2023-02-12T13:55:18;98107.81;;;12.24;54.51